Time;durP1;ratioP1;P1;durP2;ratioP2;P2;SDS_P1;SDS_P2;PMS_P1;PMS_P2;Temp;Humidity;BMP_temperature;BMP_pressure;BME280_temperature;BME280_humidity;BME280_pressure;Samples;Min_cycle;Max_cycle;Signal;HPM_P1;HPM_P2
2023/10/16 00:01:28;;;;;;;5.30;2.10;;;;;;;;;;5042895;28;20100;-75
2023/10/16 00:03:56;;;;;;;7.40;2.40;;;;;;;;;;5054428;28;20013;-75
2023/10/16 00:06:22;;;;;;;7.07;2.50;;;;;;;;;;5059894;28;20108;-75
2023/10/16 00:08:48;;;;;;;8.00;2.80;;;;;;;;;;5061015;28;20044;-75
2023/10/16 00:11:18;;;;;;;4.77;2.60;;;;;;;;;;5042758;28;20032;-75
2023/10/16 00:13:49;;;;;;;4.57;2.30;;;;;;;;;;5039761;28;20021;-76
2023/10/16 00:16:16;;;;;;;7.70;2.10;;;;;;;;;;5054209;28;20013;-75
2023/10/16 00:18:45;;;;;;;4.37;1.87;;;;;;;;;;5053132;28;20021;-75
2023/10/16 00:21:13;;;;;;;9.23;3.00;;;;;;;;;;5042598;28;20014;-74
2023/10/16 00:23:39;;;;;;;4.40;2.13;;;;;;;;;;5053450;28;20009;-75
2023/10/16 00:26:06;;;;;;;4.40;2.20;;;;;;;;;;5056290;28;20010;-74
2023/10/16 00:28:35;;;;;;;5.50;1.97;;;;;;;;;;5057197;28;20028;-73
2023/10/16 00:31:03;;;;;;;6.07;2.50;;;;;;;;;;5056822;28;20037;-75
2023/10/16 00:33:29;;;;;;;9.03;2.60;;;;;;;;;;5057565;28;20044;-74
2023/10/16 00:35:55;;;;;;;5.07;2.50;;;;;;;;;;5047405;28;20031;-74
2023/10/16 00:38:22;;;;;;;7.90;2.87;;;;;;;;;;5036597;28;20013;-74
2023/10/16 00:43:35;;;;;;;4.60;2.10;;;;;;;;;;5054390;28;20060;-74
2023/10/16 00:46:08;;;;;;;4.77;2.37;;;;;;;;;;5056624;28;20026;-74
2023/10/16 00:48:35;;;;;;;8.80;3.07;;;;;;;;;;5036892;28;20104;-76
2023/10/16 00:51:35;;;;;;;5.93;2.40;;;;;;;;;;5036206;28;20105;-75
2023/10/16 00:53:54;;;;;;;3.28;1.75;;;;;;;;;;5051448;28;20081;-76
2023/10/16 00:56:24;;;;;;;5.43;2.67;;;;;;;;;;5034862;28;20041;-75
2023/10/16 00:58:52;;;;;;;4.87;2.27;;;;;;;;;;5034142;28;20025;-77
2023/10/16 01:01:19;;;;;;;6.70;3.00;;;;;;;;;;5050614;28;20126;-75
2023/10/16 01:03:48;;;;;;;6.03;2.60;;;;;;;;;;5049886;28;20033;-76
2023/10/16 01:06:24;;;;;;;5.80;2.50;;;;;;;;;;5052915;28;20013;-76
2023/10/16 01:08:50;;;;;;;5.57;2.73;;;;;;;;;;5031831;28;20470;-74
2023/10/16 01:11:19;;;;;;;5.60;2.57;;;;;;;;;;5032535;28;20029;-81
2023/10/16 01:13:47;;;;;;;5.03;2.47;;;;;;;;;;5032280;28;20064;-81
2023/10/16 01:16:13;;;;;;;5.63;2.57;;;;;;;;;;5030892;28;20040;-81
2023/10/16 01:18:40;;;;;;;5.23;2.50;;;;;;;;;;5045225;28;20014;-77
2023/10/16 01:21:07;;;;;;;4.43;2.47;;;;;;;;;;5044299;28;20025;-81
2023/10/16 01:23:34;;;;;;;7.00;2.73;;;;;;;;;;5044795;28;20033;-77
2023/10/16 01:26:04;;;;;;;5.93;2.47;;;;;;;;;;5021704;28;20053;-85
2023/10/16 01:28:30;;;;;;;6.33;2.43;;;;;;;;;;5046682;28;20029;-79
2023/10/16 01:30:56;;;;;;;6.80;2.40;;;;;;;;;;5042286;28;20057;-80
2023/10/16 01:33:23;;;;;;;7.03;2.80;;;;;;;;;;5045079;28;20037;-80
2023/10/16 01:35:52;;;;;;;5.23;2.40;;;;;;;;;;5038124;28;20379;-79
2023/10/16 01:38:19;;;;;;;6.70;2.77;;;;;;;;;;5021999;28;20034;-79
2023/10/16 01:41:13;;;;;;;9.10;3.00;;;;;;;;;;5016528;28;20044;-83
2023/10/16 01:43:43;;;;;;;6.63;2.63;;;;;;;;;;5038959;28;20030;-88
2023/10/16 01:46:10;;;;;;;5.23;2.60;;;;;;;;;;5031594;28;20034;-84
2023/10/16 01:48:41;;;;;;;4.43;2.63;;;;;;;;;;5036920;28;20018;-85
2023/10/16 01:51:09;;;;;;;6.30;3.10;;;;;;;;;;5038843;28;20374;-82
2023/10/16 01:53:39;;;;;;;6.17;2.83;;;;;;;;;;5036761;28;20034;-87
2023/10/16 01:56:15;;;;;;;6.27;3.10;;;;;;;;;;5019262;28;20100;-86
2023/10/16 01:58:45;;;;;;;9.00;2.90;;;;;;;;;;5017427;28;20033;-87
2023/10/16 02:01:13;;;;;;;4.67;2.57;;;;;;;;;;5017486;28;20047;-86
2023/10/16 02:03:43;;;;;;;4.70;2.60;;;;;;;;;;5019131;28;20072;-86
2023/10/16 02:06:11;;;;;;;5.30;3.60;;;;;;;;;;5019822;28;20025;-84
2023/10/16 02:08:37;;;;;;;5.60;3.40;;;;;;;;;;5018709;28;20034;-82
2023/10/16 02:11:03;;;;;;;5.07;3.07;;;;;;;;;;5020377;28;20052;-83
2023/10/16 02:13:31;;;;;;;7.20;2.77;;;;;;;;;;5018137;28;20052;-86
2023/10/16 02:15:57;;;;;;;5.80;2.97;;;;;;;;;;5017312;28;20037;-86
2023/10/16 02:18:27;;;;;;;9.53;4.10;;;;;;;;;;5034818;28;20033;-83
2023/10/16 02:20:53;;;;;;;5.83;2.93;;;;;;;;;;5016393;28;20060;-82
2023/10/16 02:23:19;;;;;;;5.73;3.20;;;;;;;;;;5035517;28;20032;-85
2023/10/16 02:25:47;;;;;;;4.83;3.33;;;;;;;;;;5034410;28;20079;-85
2023/10/16 02:28:19;;;;;;;9.27;3.37;;;;;;;;;;5015426;28;20025;-86
2023/10/16 02:30:49;;;;;;;6.87;3.63;;;;;;;;;;5018848;28;20029;-84
2023/10/16 02:33:23;;;;;;;5.73;3.50;;;;;;;;;;5037504;28;20310;-87
2023/10/16 02:35:50;;;;;;;4.87;2.93;;;;;;;;;;5017658;28;20025;-87
2023/10/16 02:38:23;;;;;;;5.97;3.77;;;;;;;;;;5035359;28;20053;-84
2023/10/16 02:40:53;;;;;;;9.40;4.03;;;;;;;;;;5019850;28;20033;-82
2023/10/16 02:43:20;;;;;;;7.90;3.37;;;;;;;;;;5017196;28;20029;-82
2023/10/16 02:45:47;;;;;;;6.33;3.83;;;;;;;;;;5019744;28;20044;-85
2023/10/16 02:48:19;;;;;;;5.27;3.30;;;;;;;;;;5038102;28;20025;-84
2023/10/16 02:50:49;;;;;;;7.28;2.92;;;;;;;;;;5039632;28;20036;-85
2023/10/16 02:53:16;;;;;;;6.20;3.63;;;;;;;;;;5021573;28;20033;-86
2023/10/16 02:55:45;;;;;;;7.07;3.13;;;;;;;;;;5035900;28;20588;-84
2023/10/16 02:58:11;;;;;;;5.50;2.90;;;;;;;;;;5017177;28;20104;-83
2023/10/16 03:00:49;;;;;;;10.17;3.77;;;;;;;;;;5035674;28;20710;-85
2023/10/16 03:03:17;;;;;;;9.70;3.87;;;;;;;;;;5022591;28;20087;-85
2023/10/16 03:05:49;;;;;;;8.90;3.77;;;;;;;;;;5031866;28;20034;-86
2023/10/16 03:08:18;;;;;;;5.90;4.07;;;;;;;;;;5024611;28;20022;-84
2023/10/16 03:10:45;;;;;;;8.30;3.93;;;;;;;;;;5016889;28;20025;-84
2023/10/16 03:13:13;;;;;;;6.80;3.23;;;;;;;;;;5023605;28;20044;-84
2023/10/16 03:15:46;;;;;;;7.70;3.23;;;;;;;;;;5022026;28;20191;-83
2023/10/16 03:18:17;;;;;;;7.38;4.65;;;;;;;;;;5032682;28;20515;-86
2023/10/16 03:20:46;;;;;;;8.40;3.77;;;;;;;;;;5019434;28;20032;-82
2023/10/16 03:23:13;;;;;;;6.67;3.30;;;;;;;;;;5044595;28;20029;-86
2023/10/16 03:28:08;;;;;;;9.30;3.90;;;;;;;;;;5041540;28;20037;-81
2023/10/16 03:30:35;;;;;;;7.10;3.57;;;;;;;;;;5024465;28;20057;-82
2023/10/16 03:33:07;;;;;;;8.67;3.77;;;;;;;;;;5042260;28;20167;-84
2023/10/16 03:35:34;;;;;;;6.90;3.63;;;;;;;;;;5040481;28;20033;-85
2023/10/16 03:38:20;;;;;;;5.47;3.53;;;;;;;;;;5023688;28;20057;-87
2023/10/16 03:40:50;;;;;;;8.83;4.23;;;;;;;;;;5040490;28;20042;-83
2023/10/16 03:43:18;;;;;;;8.90;3.40;;;;;;;;;;5042279;28;20030;-81
2023/10/16 03:45:44;;;;;;;8.10;4.67;;;;;;;;;;5043423;28;20014;-81
2023/10/16 03:48:10;;;;;;;8.40;4.30;;;;;;;;;;5027761;28;20574;-85
2023/10/16 03:50:42;;;;;;;7.47;3.97;;;;;;;;;;5023963;28;20045;-84
2023/10/16 03:53:08;;;;;;;7.60;4.23;;;;;;;;;;5042696;28;20029;-83
2023/10/16 03:55:43;;;;;;;8.63;4.30;;;;;;;;;;5024237;28;20056;-83
2023/10/16 03:58:10;;;;;;;6.33;4.17;;;;;;;;;;5024425;28;20087;-82
2023/10/16 04:03:22;;;;;;;8.37;4.70;;;;;;;;;;5048383;28;20044;-86
2023/10/16 04:05:49;;;;;;;10.83;5.30;;;;;;;;;;5045952;28;20081;-83
2023/10/16 04:08:16;;;;;;;14.60;5.20;;;;;;;;;;5032606;28;20029;-82
2023/10/16 04:10:46;;;;;;;9.80;5.07;;;;;;;;;;5040421;28;20029;-81
2023/10/16 04:13:17;;;;;;;11.70;5.70;;;;;;;;;;5028394;28;20048;-83
2023/10/16 04:18:28;;;;;;;9.13;4.53;;;;;;;;;;5046949;28;20061;-81
2023/10/16 04:31:44;;;;;;;9.93;5.33;;;;;;;;;;5044913;28;20339;-83
2023/10/16 04:36:53;;;;;;;10.73;4.97;;;;;;;;;;5045470;28;20025;-82
2023/10/16 04:47:41;;;;;;;9.00;4.43;;;;;;;;;;5045948;28;20112;-85
2023/10/16 04:50:09;;;;;;;10.93;5.28;;;;;;;;;;5045925;28;20025;-81
2023/10/16 05:06:15;;;;;;;7.40;4.23;;;;;;;;;;5046282;28;20574;-83
2023/10/16 06:14:14;;;;;;;12.60;6.13;;;;;;;;;;5048414;28;20097;-85
2023/10/16 06:16:39;;;;;;;10.60;5.80;;;;;;;;;;5045292;28;20096;-86
2023/10/16 06:19:07;;;;;;;13.97;6.20;;;;;;;;;;5047863;28;20049;-81
2023/10/16 06:21:34;;;;;;;11.70;6.13;;;;;;;;;;5045983;28;20028;-83
2023/10/16 06:24:00;;;;;;;16.93;5.97;;;;;;;;;;5049044;28;20033;-80
2023/10/16 06:26:28;;;;;;;10.83;5.33;;;;;;;;;;5028204;28;20040;-84
2023/10/16 06:28:57;;;;;;;18.13;5.80;;;;;;;;;;5044274;28;20052;-86
2023/10/16 06:31:22;;;;;;;12.33;5.73;;;;;;;;;;5041188;28;20097;-86
2023/10/16 06:33:58;;;;;;;15.57;5.80;;;;;;;;;;5025907;28;20060;-85
2023/10/16 06:36:24;;;;;;;14.90;6.77;;;;;;;;;;5028478;28;20040;-82
2023/10/16 06:38:51;;;;;;;10.30;6.33;;;;;;;;;;5044311;28;20045;-80
2023/10/16 06:41:20;;;;;;;11.93;6.07;;;;;;;;;;5044001;28;20063;-87
2023/10/16 06:43:49;;;;;;;16.07;8.17;;;;;;;;;;5043457;28;20041;-83
2023/10/16 06:46:22;;;;;;;12.77;7.27;;;;;;;;;;5024645;28;20052;-86
2023/10/16 06:48:48;;;;;;;15.70;7.73;;;;;;;;;;5026765;28;20350;-85
2023/10/16 06:51:17;;;;;;;24.47;8.00;;;;;;;;;;5040617;28;20103;-83
2023/10/16 06:53:46;;;;;;;20.13;8.20;;;;;;;;;;5022149;28;20041;-84
2023/10/16 06:56:14;;;;;;;21.00;9.43;;;;;;;;;;5039826;28;20044;-81
2023/10/16 06:58:44;;;;;;;23.70;9.23;;;;;;;;;;5038625;28;20036;-81
2023/10/16 07:01:19;;;;;;;18.20;9.00;;;;;;;;;;5021928;28;20044;-84
2023/10/16 07:03:47;;;;;;;14.27;8.30;;;;;;;;;;5038718;28;20098;-87
2023/10/16 07:06:14;;;;;;;16.67;9.47;;;;;;;;;;5019700;28;20034;-81
2023/10/16 07:08:43;;;;;;;17.13;9.17;;;;;;;;;;5039697;28;20032;-82
2023/10/16 07:11:13;;;;;;;58.53;10.07;;;;;;;;;;5038785;28;20029;-87
2023/10/16 07:13:41;;;;;;;20.27;9.67;;;;;;;;;;5021837;28;20048;-84
2023/10/16 07:16:09;;;;;;;17.73;9.07;;;;;;;;;;5041249;28;20041;-83
2023/10/16 07:18:35;;;;;;;19.17;10.37;;;;;;;;;;5027251;28;20028;-78
2023/10/16 07:23:34;;;;;;;17.43;9.47;;;;;;;;;;5049146;28;20045;-79
2023/10/16 07:26:04;;;;;;;18.63;10.07;;;;;;;;;;5032176;28;20025;-74
2023/10/16 07:28:33;;;;;;;23.07;11.17;;;;;;;;;;5036025;28;20051;-74
2023/10/16 07:31:02;;;;;;;20.20;10.77;;;;;;;;;;5058453;28;20021;-74
2023/10/16 07:33:28;;;;;;;24.33;11.63;;;;;;;;;;5061187;28;20040;-74
2023/10/16 07:35:55;;;;;;;22.83;11.83;;;;;;;;;;5045394;28;20017;-74
2023/10/16 07:38:22;;;;;;;31.80;12.37;;;;;;;;;;5059111;28;20036;-74
2023/10/16 07:40:52;;;;;;;26.60;12.77;;;;;;;;;;5039892;28;20037;-74
2023/10/16 07:43:28;;;;;;;24.50;11.90;;;;;;;;;;5056960;28;20025;-74
2023/10/16 07:48:45;;;;;;;26.70;11.60;;;;;;;;;;5057012;28;20086;-74
2023/10/16 07:51:20;;;;;;;32.03;12.50;;;;;;;;;;5056693;28;20039;-74
2023/10/16 07:53:48;;;;;;;24.37;12.50;;;;;;;;;;5039404;28;20013;-75
2023/10/16 07:56:25;;;;;;;23.43;13.50;;;;;;;;;;5058671;28;20044;-74
2023/10/16 07:58:54;;;;;;;25.67;12.97;;;;;;;;;;5059733;28;20033;-74
2023/10/16 08:01:36;;;;;;;29.63;13.77;;;;;;;;;;5038293;28;20068;-75
2023/10/16 08:04:06;;;;;;;20.13;11.83;;;;;;;;;;5060522;28;20021;-74
2023/10/16 08:06:39;;;;;;;29.53;16.13;;;;;;;;;;5056747;28;20039;-74
2023/10/16 08:11:57;;;;;;;24.87;13.97;;;;;;;;;;5059625;28;20041;-74
2023/10/16 08:14:22;;;;;;;;;;;;;;;;;;5059722;28;20053;-74
2023/10/16 08:16:49;;;;;;;29.47;16.47;;;;;;;;;;5041023;28;19935;-75
2023/10/16 08:19:15;;;;;;;34.00;19.53;;;;;;;;;;5039992;28;20093;-75
2023/10/16 08:21:43;;;;;;;39.50;20.03;;;;;;;;;;5036725;28;20043;-75
2023/10/16 08:24:21;;;;;;;34.50;19.00;;;;;;;;;;5055816;28;20014;-75
2023/10/16 08:26:48;;;;;;;31.70;18.10;;;;;;;;;;5040190;28;20017;-75
2023/10/16 08:31:44;;;;;;;34.97;19.50;;;;;;;;;;5057105;28;20105;-74
2023/10/16 08:34:12;;;;;;;34.37;20.07;;;;;;;;;;5037111;28;20022;-76
2023/10/16 08:36:41;;;;;;;41.63;21.93;;;;;;;;;;5055070;28;20013;-75
2023/10/16 08:39:10;;;;;;;39.57;21.60;;;;;;;;;;5037487;28;20013;-75
2023/10/16 08:41:42;;;;;;;35.27;19.90;;;;;;;;;;5038620;28;20040;-75
2023/10/16 08:44:21;;;;;;;38.72;21.20;;;;;;;;;;5037427;28;20018;-76
2023/10/16 08:49:24;;;;;;;41.60;21.33;;;;;;;;;;5053497;28;20045;-76
2023/10/16 08:52:09;;;;;;;39.30;22.37;;;;;;;;;;5050049;28;20017;-76
2023/10/16 08:57:19;;;;;;;39.07;21.20;;;;;;;;;;5052716;28;20014;-75
2023/10/16 08:59:49;;;;;;;37.10;20.50;;;;;;;;;;5037712;28;20076;-74
2023/10/16 09:02:17;;;;;;;41.40;21.87;;;;;;;;;;5052577;28;20044;-75
2023/10/16 09:04:44;;;;;;;38.83;21.03;;;;;;;;;;5038515;28;20041;-76
2023/10/16 09:07:19;;;;;;;39.67;22.53;;;;;;;;;;5053053;28;20017;-75
2023/10/16 09:09:48;;;;;;;31.50;19.17;;;;;;;;;;5032859;28;20025;-76
2023/10/16 09:12:24;;;;;;;37.57;21.43;;;;;;;;;;5053413;28;20018;-76
2023/10/16 09:14:51;;;;;;;37.40;19.47;;;;;;;;;;5033033;28;20213;-75
2023/10/16 09:17:19;;;;;;;33.40;21.97;;;;;;;;;;5038305;28;20089;-76
2023/10/16 09:19:48;;;;;;;38.53;22.37;;;;;;;;;;5037211;28;20045;-78
2023/10/16 09:22:17;;;;;;;38.93;21.10;;;;;;;;;;5037099;28;20038;-75
2023/10/16 09:24:51;;;;;;;37.73;21.47;;;;;;;;;;5040453;28;20014;-75
2023/10/16 09:27:22;;;;;;;45.47;23.00;;;;;;;;;;5054135;28;20044;-75
2023/10/16 09:29:55;;;;;;;39.10;23.37;;;;;;;;;;5039076;28;20033;-75
2023/10/16 09:32:25;;;;;;;38.07;22.00;;;;;;;;;;5054143;28;20037;-75
2023/10/16 09:35:05;;;;;;;39.20;23.87;;;;;;;;;;5054361;28;20013;-75
2023/10/16 09:37:34;;;;;;;41.83;22.80;;;;;;;;;;5040598;28;20044;-74
2023/10/16 09:40:35;;;;;;;37.00;20.90;;;;;;;;;;5052869;28;20060;-76
2023/10/16 09:43:05;;;;;;;34.87;21.23;;;;;;;;;;5039561;28;20033;-75
2023/10/16 09:45:35;;;;;;;33.53;21.10;;;;;;;;;;5060948;28;20014;-76
2023/10/16 09:48:09;;;;;;;29.57;20.33;;;;;;;;;;5058609;28;20028;-75
2023/10/16 09:50:38;;;;;;;33.10;20.20;;;;;;;;;;5060182;28;20045;-75
2023/10/16 09:53:06;;;;;;;36.20;21.50;;;;;;;;;;5060167;28;20079;-76
2023/10/16 09:55:44;;;;;;;34.13;20.83;;;;;;;;;;5056230;28;20024;-75
2023/10/16 09:58:11;;;;;;;28.33;18.00;;;;;;;;;;5042262;28;20037;-74
2023/10/16 10:00:46;;;;;;;29.67;16.93;;;;;;;;;;5042667;28;20068;-75
2023/10/16 10:03:12;;;;;;;26.27;16.23;;;;;;;;;;5058798;28;20018;-75
2023/10/16 10:05:49;;;;;;;25.33;17.07;;;;;;;;;;5042347;28;20026;-76
2023/10/16 10:08:25;;;;;;;24.83;15.53;;;;;;;;;;5058827;28;20017;-75
2023/10/16 10:13:43;;;;;;;27.33;14.80;;;;;;;;;;5060134;28;20027;-77
2023/10/16 10:16:13;;;;;;;29.33;17.40;;;;;;;;;;5041680;28;20071;-76
2023/10/16 10:18:45;;;;;;;22.53;14.77;;;;;;;;;;5057525;28;20023;-76
2023/10/16 10:21:18;;;;;;;24.63;14.75;;;;;;;;;;5059581;28;20045;-76
2023/10/16 10:23:44;;;;;;;;;;;;;;;;;;5060012;28;20009;-76
2023/10/16 10:26:11;;;;;;;32.23;15.73;;;;;;;;;;5060235;28;19927;-76
2023/10/16 10:28:40;;;;;;;28.20;15.50;;;;;;;;;;5041784;28;20026;-75
2023/10/16 10:31:07;;;;;;;30.33;15.87;;;;;;;;;;5039358;28;20014;-76
2023/10/16 10:33:36;;;;;;;27.77;16.00;;;;;;;;;;5041485;28;20064;-76
2023/10/16 10:36:21;;;;;;;32.50;15.97;;;;;;;;;;5041571;28;20032;-77
2023/10/16 10:38:47;;;;;;;33.17;16.00;;;;;;;;;;5039105;28;20101;-74
2023/10/16 10:41:14;;;;;;;31.77;15.23;;;;;;;;;;5042973;28;20043;-75
2023/10/16 10:43:48;;;;;;;26.40;14.63;;;;;;;;;;5037588;28;20018;-74
2023/10/16 10:46:28;;;;;;;29.40;14.80;;;;;;;;;;5044757;28;20027;-75
2023/10/16 10:48:54;;;;;;;26.63;14.60;;;;;;;;;;5038401;28;20041;-75
2023/10/16 10:51:21;;;;;;;27.33;15.13;;;;;;;;;;5040618;28;20009;-76
2023/10/16 10:53:56;;;;;;;23.27;11.93;;;;;;;;;;5042105;28;20026;-75
2023/10/16 10:56:22;;;;;;;25.83;13.83;;;;;;;;;;5039958;28;20109;-76
2023/10/16 10:58:49;;;;;;;22.20;12.33;;;;;;;;;;5058023;28;20170;-75
2023/10/16 11:01:28;;;;;;;23.80;13.60;;;;;;;;;;5039446;28;20033;-76
2023/10/16 11:03:55;;;;;;;26.83;13.63;;;;;;;;;;5059653;28;20077;-74
2023/10/16 11:06:39;;;;;;;26.73;12.23;;;;;;;;;;5041845;28;20073;-77
2023/10/16 11:09:18;;;;;;;26.53;12.77;;;;;;;;;;5058611;28;20017;-75
2023/10/16 11:11:45;;;;;;;24.13;12.30;;;;;;;;;;5040810;28;20009;-75
2023/10/16 11:14:12;;;;;;;22.73;12.80;;;;;;;;;;5057834;28;20051;-75
2023/10/16 11:16:45;;;;;;;21.27;11.57;;;;;;;;;;5054747;28;20013;-75
2023/10/16 11:19:11;;;;;;;28.90;13.10;;;;;;;;;;5058032;28;20038;-75
2023/10/16 11:21:47;;;;;;;23.03;12.13;;;;;;;;;;5058936;28;20057;-76
2023/10/16 11:24:13;;;;;;;30.77;14.77;;;;;;;;;;5040720;28;20014;-76
2023/10/16 11:26:42;;;;;;;21.00;10.37;;;;;;;;;;5040656;28;20038;-75
2023/10/16 11:29:12;;;;;;;27.07;10.27;;;;;;;;;;5040284;28;20026;-75
2023/10/16 11:31:41;;;;;;;21.53;10.20;;;;;;;;;;5055198;28;20030;-75
2023/10/16 11:34:12;;;;;;;26.43;11.27;;;;;;;;;;5057446;28;20010;-75
2023/10/16 11:36:40;;;;;;;19.40;11.50;;;;;;;;;;5042179;28;20029;-75
2023/10/16 11:39:07;;;;;;;19.60;10.60;;;;;;;;;;5057742;28;20052;-75
2023/10/16 11:41:34;;;;;;;20.23;12.07;;;;;;;;;;5037358;28;20033;-77
2023/10/16 11:44:05;;;;;;;23.30;10.10;;;;;;;;;;5041715;28;20032;-75
2023/10/16 11:46:34;;;;;;;17.40;10.27;;;;;;;;;;5037099;28;20037;-74
2023/10/16 11:54:52;;;;;;;19.10;10.60;;;;;;;;;;5056712;28;20055;-74
2023/10/16 11:57:18;;;;;;;21.50;12.20;;;;;;;;;;5040635;28;20064;-75
2023/10/16 11:59:45;;;;;;;22.87;11.30;;;;;;;;;;5039201;28;20021;-75
2023/10/16 12:02:17;;;;;;;19.33;10.60;;;;;;;;;;5038046;28;20014;-74
2023/10/16 12:04:44;;;;;;;22.83;12.67;;;;;;;;;;5041010;28;20010;-74
2023/10/16 12:07:13;;;;;;;19.73;11.07;;;;;;;;;;5058600;28;20032;-75
2023/10/16 12:09:47;;;;;;;15.17;8.70;;;;;;;;;;5037247;28;20014;-76
2023/10/16 12:12:19;;;;;;;16.40;9.70;;;;;;;;;;5045633;28;20021;-75
2023/10/16 12:14:48;;;;;;;18.38;10.98;;;;;;;;;;5056421;28;20021;-75
2023/10/16 12:17:15;;;;;;;23.27;11.70;;;;;;;;;;5059599;28;20032;-75
2023/10/16 12:19:41;;;;;;;24.30;10.63;;;;;;;;;;5058044;28;20113;-75
2023/10/16 12:22:08;;;;;;;22.27;10.23;;;;;;;;;;5056348;28;20098;-76
2023/10/16 12:24:34;;;;;;;18.70;9.37;;;;;;;;;;5060895;28;20086;-75
2023/10/16 12:27:04;;;;;;;17.83;9.33;;;;;;;;;;5054701;28;20013;-76
2023/10/16 12:29:32;;;;;;;15.60;8.73;;;;;;;;;;5039991;28;20036;-76
2023/10/16 12:32:02;;;;;;;19.47;8.70;;;;;;;;;;5040263;28;20017;-74
2023/10/16 12:34:32;;;;;;;18.43;9.13;;;;;;;;;;5035421;28;20055;-75
2023/10/16 12:37:00;;;;;;;20.03;9.87;;;;;;;;;;5057178;28;20104;-75
2023/10/16 12:39:26;;;;;;;15.13;8.23;;;;;;;;;;5055399;28;20083;-75
2023/10/16 12:41:57;;;;;;;19.67;9.63;;;;;;;;;;5058381;28;20029;-75
2023/10/16 12:44:27;;;;;;;17.10;8.57;;;;;;;;;;5056253;28;20013;-75
2023/10/16 12:46:53;;;;;;;18.07;8.40;;;;;;;;;;5053992;28;20014;-75
2023/10/16 12:49:22;;;;;;;16.50;8.43;;;;;;;;;;5037621;28;20033;-75
2023/10/16 12:51:49;;;;;;;14.47;7.70;;;;;;;;;;5053157;28;20035;-75
2023/10/16 12:54:16;;;;;;;15.43;8.10;;;;;;;;;;5040750;28;20021;-76
2023/10/16 12:56:45;;;;;;;19.77;8.27;;;;;;;;;;5036896;28;20026;-76
2023/10/16 12:59:11;;;;;;;13.70;7.53;;;;;;;;;;5053207;28;20037;-76
2023/10/16 13:01:40;;;;;;;18.93;7.30;;;;;;;;;;5052679;28;20067;-75
2023/10/16 13:04:13;;;;;;;15.33;7.03;;;;;;;;;;5056946;28;20101;-76
2023/10/16 13:06:39;;;;;;;15.03;8.13;;;;;;;;;;5036535;28;20013;-75
2023/10/16 13:09:14;;;;;;;14.77;7.40;;;;;;;;;;5056077;28;20029;-75
2023/10/16 13:11:40;;;;;;;17.17;6.72;;;;;;;;;;5057241;28;20017;-74
2023/10/16 13:14:05;;;;;;;17.83;7.57;;;;;;;;;;5051598;28;20039;-75
2023/10/16 13:16:32;;;;;;;17.38;6.05;;;;;;;;;;5053795;28;20025;-75
2023/10/16 13:19:00;;;;;;;14.40;6.13;;;;;;;;;;5035353;28;20041;-75
2023/10/16 13:21:33;;;;;;;13.68;5.60;;;;;;;;;;5054371;28;20025;-75
2023/10/16 13:24:04;;;;;;;;;;;;;;;;;;5038558;28;20108;-75
2023/10/16 13:26:31;;;;;;;10.35;4.65;;;;;;;;;;5034259;28;19936;-76
2023/10/16 13:29:01;;;;;;;9.82;5.43;;;;;;;;;;5054862;28;20081;-75
2023/10/16 13:31:27;;;;;;;11.05;5.45;;;;;;;;;;5055841;28;20070;-75
2023/10/16 13:33:53;;;;;;;8.30;4.57;;;;;;;;;;5053783;28;20025;-75
2023/10/16 13:36:19;;;;;;;14.75;5.78;;;;;;;;;;5053002;28;20018;-75
2023/10/16 13:38:45;;;;;;;10.60;5.72;;;;;;;;;;5034612;28;20045;-74
2023/10/16 13:41:25;;;;;;;12.18;6.13;;;;;;;;;;5050693;28;20052;-75
2023/10/16 13:43:55;;;;;;;12.77;5.82;;;;;;;;;;5053715;28;20048;-75
2023/10/16 13:46:21;;;;;;;14.48;6.13;;;;;;;;;;5051211;28;20029;-75
2023/10/16 13:48:50;;;;;;;13.32;5.95;;;;;;;;;;5054108;28;20047;-75
2023/10/16 13:51:16;;;;;;;10.30;4.93;;;;;;;;;;5035697;28;20016;-75
2023/10/16 13:53:43;;;;;;;13.10;5.68;;;;;;;;;;5039893;28;20021;-76
2023/10/16 13:56:10;;;;;;;10.38;5.00;;;;;;;;;;5037487;28;20089;-75
2023/10/16 13:58:36;;;;;;;11.30;4.47;;;;;;;;;;5055519;28;20018;-74
2023/10/16 14:01:02;;;;;;;8.32;3.53;;;;;;;;;;5036064;28;20113;-76
2023/10/16 14:03:28;;;;;;;6.97;3.47;;;;;;;;;;5051579;28;20085;-75
2023/10/16 14:05:55;;;;;;;7.85;3.38;;;;;;;;;;5055261;28;20055;-75
2023/10/16 14:08:36;;;;;;;8.75;3.97;;;;;;;;;;5037078;28;20025;-75
2023/10/16 14:11:03;;;;;;;10.40;2.72;;;;;;;;;;5055350;28;20036;-76
2023/10/16 14:13:32;;;;;;;13.70;3.38;;;;;;;;;;5051642;28;20026;-74
2023/10/16 14:16:41;;;;;;;7.05;2.53;;;;;;;;;;5055748;28;20014;-76
2023/10/16 14:18:47;;;;;;;7.70;2.72;;;;;;;;;;5047829;28;20033;-75
2023/10/16 14:21:16;;;;;;;6.80;2.67;;;;;;;;;;5052563;28;20036;-75
2023/10/16 14:23:43;;;;;;;6.40;3.60;;;;;;;;;;5054921;28;20089;-75
2023/10/16 14:26:11;;;;;;;8.23;3.73;;;;;;;;;;5040256;28;20046;-75
2023/10/16 14:28:43;;;;;;;8.23;2.90;;;;;;;;;;5058633;28;20025;-74
2023/10/16 14:31:14;;;;;;;;;;;;;;;;;;5055811;28;20040;-74
2023/10/16 14:33:42;;;;;;;7.33;2.63;;;;;;;;;;5058516;28;19920;-75
2023/10/16 14:36:09;;;;;;;6.27;2.30;;;;;;;;;;5042906;28;20069;-75
2023/10/16 14:38:38;;;;;;;4.67;2.40;;;;;;;;;;5041901;28;20044;-75
2023/10/16 14:41:08;;;;;;;7.60;2.43;;;;;;;;;;5059721;28;20033;-75
2023/10/16 14:43:38;;;;;;;6.33;2.43;;;;;;;;;;5054279;28;20045;-74
2023/10/16 14:46:07;;;;;;;5.53;2.30;;;;;;;;;;5049509;28;20026;-74
2023/10/16 14:48:37;;;;;;;6.93;3.30;;;;;;;;;;5034916;28;20025;-75
2023/10/16 14:51:12;;;;;;;6.80;2.13;;;;;;;;;;5039150;28;20281;-75
2023/10/16 14:53:39;;;;;;;8.57;2.57;;;;;;;;;;5055506;28;20044;-75
2023/10/16 14:56:06;;;;;;;5.97;3.00;;;;;;;;;;5052809;28;20017;-75
2023/10/16 14:58:34;;;;;;;5.50;3.20;;;;;;;;;;5055700;28;20045;-75
2023/10/16 15:01:09;;;;;;;6.60;2.47;;;;;;;;;;5052285;28;20048;-76
2023/10/16 15:03:42;;;;;;;8.40;4.30;;;;;;;;;;5034371;28;20036;-75
2023/10/16 15:06:08;;;;;;;5.73;2.97;;;;;;;;;;5036063;28;20025;-75
2023/10/16 15:08:35;;;;;;;6.30;3.23;;;;;;;;;;5056047;28;20037;-75
2023/10/16 15:11:03;;;;;;;7.47;2.50;;;;;;;;;;5052621;28;20085;-74
2023/10/16 15:13:29;;;;;;;6.63;2.73;;;;;;;;;;5055209;28;20025;-75
2023/10/16 15:15:57;;;;;;;6.43;2.50;;;;;;;;;;5055413;28;20250;-76
2023/10/16 15:18:23;;;;;;;5.90;2.57;;;;;;;;;;5052154;28;20031;-75
2023/10/16 15:20:52;;;;;;;6.17;2.37;;;;;;;;;;5052476;28;20021;-75
2023/10/16 15:23:22;;;;;;;6.73;2.67;;;;;;;;;;5038482;28;20029;-75
2023/10/16 15:25:48;;;;;;;5.83;2.20;;;;;;;;;;5055373;28;20021;-75
2023/10/16 15:28:14;;;;;;;9.83;4.10;;;;;;;;;;5058026;28;20026;-75
2023/10/16 15:30:43;;;;;;;4.73;3.17;;;;;;;;;;5040824;28;20040;-75
2023/10/16 15:33:09;;;;;;;5.13;2.47;;;;;;;;;;5042527;28;20037;-75
2023/10/16 15:35:37;;;;;;;5.97;2.50;;;;;;;;;;5042523;28;20039;-75
2023/10/16 15:38:08;;;;;;;7.37;3.60;;;;;;;;;;5060582;28;20049;-75
2023/10/16 15:40:35;;;;;;;6.87;2.87;;;;;;;;;;5040627;28;20041;-76
2023/10/16 15:43:02;;;;;;;9.20;3.30;;;;;;;;;;5038094;28;20028;-75
2023/10/16 15:45:40;;;;;;;5.93;2.90;;;;;;;;;;5059619;28;20041;-76
2023/10/16 15:48:09;;;;;;;7.27;3.33;;;;;;;;;;5056420;28;20021;-74
2023/10/16 15:50:40;;;;;;;6.03;2.77;;;;;;;;;;5038069;28;20020;-75
2023/10/16 15:53:09;;;;;;;8.87;2.77;;;;;;;;;;5058949;28;20026;-74
2023/10/16 15:55:35;;;;;;;7.10;3.40;;;;;;;;;;5057203;28;20016;-75
2023/10/16 15:58:02;;;;;;;7.27;2.57;;;;;;;;;;5058569;28;20017;-74
2023/10/16 16:00:30;;;;;;;7.03;3.67;;;;;;;;;;5041893;28;20105;-74
2023/10/16 16:03:00;;;;;;;7.80;3.13;;;;;;;;;;5056897;28;20041;-75
2023/10/16 16:05:27;;;;;;;9.23;3.57;;;;;;;;;;5054507;28;20027;-75
2023/10/16 16:07:54;;;;;;;8.80;3.73;;;;;;;;;;5059452;28;20027;-74
2023/10/16 16:10:26;;;;;;;7.43;3.80;;;;;;;;;;5059334;28;20032;-75
2023/10/16 16:12:53;;;;;;;7.50;3.17;;;;;;;;;;5058411;28;20038;-75
2023/10/16 16:15:24;;;;;;;12.07;4.37;;;;;;;;;;5054255;28;21153;-78
2023/10/16 16:17:53;;;;;;;8.60;4.17;;;;;;;;;;5037276;28;20021;-74
2023/10/16 16:20:21;;;;;;;8.40;3.77;;;;;;;;;;5053474;28;20029;-75
2023/10/16 16:22:47;;;;;;;9.97;5.53;;;;;;;;;;5058603;28;20029;-76
2023/10/16 16:25:16;;;;;;;16.30;8.77;;;;;;;;;;5056867;28;20085;-76
2023/10/16 16:27:46;;;;;;;10.93;5.00;;;;;;;;;;5057395;28;20100;-75
2023/10/16 16:30:12;;;;;;;12.03;5.20;;;;;;;;;;5061738;28;20096;-75
2023/10/16 16:32:38;;;;;;;10.00;5.33;;;;;;;;;;5039094;28;20030;-74
2023/10/16 16:35:07;;;;;;;8.73;5.10;;;;;;;;;;5057667;28;20028;-76
2023/10/16 16:37:33;;;;;;;8.17;4.40;;;;;;;;;;5053502;28;20075;-75
2023/10/16 16:40:06;;;;;;;12.23;4.57;;;;;;;;;;5057772;28;20093;-76
2023/10/16 16:42:34;;;;;;;8.67;4.17;;;;;;;;;;5041373;28;20037;-75
2023/10/16 16:45:00;;;;;;;7.27;3.97;;;;;;;;;;5053383;28;20097;-75
2023/10/16 16:47:26;;;;;;;8.73;5.10;;;;;;;;;;5055678;28;20044;-75
2023/10/16 16:49:52;;;;;;;11.67;4.93;;;;;;;;;;5036300;28;20013;-76
2023/10/16 16:52:21;;;;;;;11.87;5.60;;;;;;;;;;5053187;28;20029;-76
2023/10/16 16:54:49;;;;;;;9.87;5.10;;;;;;;;;;5054853;28;20022;-75
2023/10/16 16:57:17;;;;;;;11.43;3.83;;;;;;;;;;5037937;28;20018;-75
2023/10/16 16:59:43;;;;;;;8.10;4.63;;;;;;;;;;5056914;28;20127;-76
2023/10/16 17:02:09;;;;;;;7.57;4.50;;;;;;;;;;5059006;28;20572;-75